createdAt,value
2023-04-16T07:19:13.007Z,0.18
2023-04-16T07:25:02.822Z,0.20
2023-04-16T07:27:47.146Z,0.20
2023-04-16T07:30:25.985Z,0.20
2023-04-16T07:33:14.412Z,0.20
2023-04-16T07:36:04.751Z,0.20
2023-04-16T07:38:46.582Z,0.20
2023-04-16T07:41:34.082Z,0.10
2023-04-16T07:44:24.203Z,0.20
2023-04-16T07:47:06.842Z,0.20
2023-04-16T07:49:50.683Z,0.20
2023-04-16T07:52:38.898Z,0.20
2023-04-16T07:55:24.089Z,0.10
2023-04-16T07:58:06.423Z,0.10
2023-04-16T08:00:59.003Z,0.20
2023-04-16T08:03:41.974Z,0.20
2023-04-16T08:06:30.249Z,0.18
2023-04-16T08:09:23.069Z,0.20
2023-04-16T08:12:09.190Z,0.20
2023-04-16T08:14:57.688Z,0.20
2023-04-16T08:17:43.274Z,0.20
2023-04-16T08:20:31.496Z,0.15
2023-04-16T08:23:10.268Z,0.17
2023-04-16T08:26:08.389Z,0.19
2023-04-16T08:28:50.274Z,0.10
2023-04-16T08:31:43.856Z,0.20
2023-04-16T08:34:31.286Z,0.20
2023-04-16T08:37:10.829Z,0.20
2023-04-16T08:39:49.595Z,0.20
2023-04-16T08:42:33.146Z,0.10
2023-04-16T08:45:20.111Z,0.17
2023-04-16T08:48:08.177Z,0.10
2023-04-16T08:51:03.626Z,0.10
2023-04-16T08:54:04.234Z,0.10
2023-04-16T08:57:02.423Z,0.10
2023-04-16T08:59:53.750Z,0.10
2023-04-16T09:03:04.937Z,0.10
2023-04-16T09:06:03.148Z,0.13
2023-04-16T09:08:55.409Z,0.10
2023-04-16T09:11:53.684Z,0.10
2023-04-16T09:14:59.781Z,0.10
2023-04-16T09:17:47.668Z,0.13
2023-04-16T09:20:44.475Z,0.20
2023-04-16T09:23:37.576Z,0.17
2023-04-16T09:26:53.703Z,0.08
2023-04-16T09:29:46.811Z,0.10
2023-04-16T09:37:35.436Z,0.10
2023-04-16T09:40:31.097Z,0.10
2023-04-16T09:43:18.132Z,0.11
2023-04-16T09:46:05.387Z,0.10
2023-04-16T09:49:07.540Z,0.10
2023-04-16T09:51:49.712Z,0.10
2023-04-16T09:54:42.903Z,0.10
2023-04-16T09:57:27.207Z,0.10
2023-04-16T10:00:15.034Z,0.10
2023-04-16T10:03:05.819Z,0.20
2023-04-16T10:06:17.127Z,0.12
2023-04-16T10:09:09.384Z,0.12
2023-04-16T10:12:06.944Z,0.11
2023-04-16T10:14:47.769Z,0.20
2023-04-16T10:17:44.948Z,0.14
2023-04-16T10:20:25.793Z,0.10
2023-04-16T10:23:18.506Z,0.10
2023-04-16T10:25:59.161Z,0.20
2023-04-16T10:29:00.405Z,0.10
2023-04-16T10:31:51.921Z,0.10
2023-04-16T10:34:52.324Z,0.10
2023-04-16T10:37:42.821Z,0.10
2023-04-16T10:40:37.075Z,0.10
2023-04-16T10:43:47.347Z,0.09
2023-04-16T10:46:43.250Z,0.10
2023-04-16T10:49:38.037Z,0.10
2023-04-16T10:52:34.109Z,0.10
2023-04-16T10:55:26.816Z,0.10
2023-04-16T10:58:29.387Z,0.10
2023-04-16T11:01:19.889Z,0.10
2023-04-16T11:07:08.974Z,0.08
2023-04-16T11:10:08.999Z,0.10
2023-04-16T11:15:58.520Z,0.10
2023-04-16T11:19:18.281Z,0.07
2023-04-16T11:22:27.723Z,0.10
2023-04-16T11:25:51.720Z,0.10
2023-04-16T11:29:00.955Z,0.05
2023-04-16T11:32:05.396Z,0.10
2023-04-16T11:35:04.601Z,0.10
2023-04-16T11:38:20.075Z,0.10
2023-04-16T11:47:57.830Z,0.03
2023-04-16T11:51:23.540Z,0.00
2023-04-16T11:57:43.454Z,0.05
2023-04-16T12:00:45.777Z,0.10
2023-04-16T12:04:05.522Z,0.10
2023-04-16T12:07:09.807Z,0.08
2023-04-16T12:10:22.332Z,0.06
2023-04-16T12:19:58.153Z,0.10
2023-04-16T12:26:15.720Z,0.05
2023-04-16T12:29:17.508Z,0.08
2023-04-16T12:32:24.268Z,0.08
2023-04-16T12:41:46.328Z,0.08
2023-04-16T12:44:59.684Z,0.02
2023-04-16T12:51:21.082Z,0.10
2023-04-16T12:54:49.373Z,0.10
2023-04-16T13:04:33.005Z,0.00
2023-04-16T13:08:17.183Z,0.00
2023-04-16T13:21:06.871Z,0.00
2023-04-16T13:27:08.796Z,0.00
2023-04-16T13:30:19.080Z,0.08
2023-04-16T13:33:38.612Z,0.00
2023-04-16T13:36:44.525Z,0.08
2023-04-16T13:39:40.664Z,0.08
2023-04-16T13:42:32.483Z,0.10
2023-04-16T13:45:31.490Z,0.10
2023-04-16T13:48:22.008Z,0.10
2023-04-16T13:51:28.837Z,0.10
2023-04-16T13:57:24.898Z,0.00
2023-04-16T14:00:28.552Z,0.10
2023-04-16T14:03:49.331Z,0.08
2023-04-16T14:07:03.360Z,0.03
2023-04-16T14:10:26.709Z,0.10
2023-04-16T14:13:40.572Z,0.10
2023-04-16T14:20:12.565Z,0.00
2023-04-16T14:23:31.836Z,0.00
2023-04-16T14:26:52.215Z,0.00
2023-04-16T14:30:22.381Z,0.00
2023-04-16T14:33:21.418Z,0.10
2023-04-16T14:36:32.176Z,0.10
2023-04-16T14:39:39.135Z,0.10
2023-04-16T14:42:53.930Z,0.10
2023-04-16T14:46:11.894Z,0.00
2023-04-16T14:49:17.947Z,0.00
2023-04-16T14:52:44.737Z,0.08
2023-04-16T14:55:37.802Z,0.00
2023-04-16T14:58:45.533Z,0.06
2023-04-16T15:01:42.380Z,0.08
2023-04-16T15:04:35.503Z,0.10
2023-04-16T15:08:50.697Z,0.09
2023-04-16T15:11:38.237Z,0.10
2023-04-16T15:14:23.797Z,0.03
2023-04-16T15:17:26.412Z,0.05
2023-04-16T15:20:21.469Z,0.10
2023-04-16T15:23:00.794Z,0.10
2023-04-16T15:25:47.237Z,0.10
2023-04-16T15:28:39.815Z,0.10
2023-04-16T15:31:31.846Z,0.10
2023-04-16T15:34:18.894Z,0.09
2023-04-16T15:37:12.841Z,0.10
2023-04-16T15:40:09.009Z,0.10
2023-04-16T15:42:57.502Z,0.10
2023-04-16T15:45:45.684Z,0.10
2023-04-16T15:48:33.001Z,0.10
2023-04-16T15:51:31.492Z,0.10
2023-04-16T15:54:23.637Z,0.10
2023-04-16T15:57:21.599Z,0.10
2023-04-16T16:00:13.498Z,0.10
2023-04-16T16:03:06.691Z,0.05
2023-04-16T16:05:55.200Z,0.10
2023-04-16T16:08:43.631Z,0.10
2023-04-16T16:11:29.727Z,0.08
2023-04-16T16:14:23.735Z,0.10
2023-04-16T16:17:09.382Z,0.10
2023-04-16T16:19:45.860Z,0.10
2023-04-16T16:22:31.981Z,0.11
2023-04-16T16:25:13.314Z,0.14
2023-04-16T16:28:00.562Z,0.10
2023-04-16T16:30:41.418Z,0.10
2023-04-16T16:33:20.853Z,0.10
2023-04-16T16:36:11.723Z,0.10
2023-04-16T16:38:48.990Z,0.10
2023-04-16T16:41:42.051Z,0.18
2023-04-16T16:44:28.870Z,0.10
2023-04-16T16:47:15.484Z,0.10
2023-04-16T16:50:05.430Z,0.08
2023-04-16T16:52:44.735Z,0.16
2023-04-16T16:55:33.046Z,0.10
2023-04-16T16:58:20.731Z,0.20
2023-04-16T17:01:04.795Z,0.10
2023-04-16T17:03:48.804Z,0.20
2023-04-16T17:06:38.854Z,0.20
2023-04-16T17:09:23.282Z,0.10
2023-04-16T17:12:08.673Z,0.13
2023-04-16T17:14:57.598Z,0.15
2023-04-16T17:17:39.442Z,0.10
2023-04-16T17:20:28.380Z,0.13
2023-04-16T17:23:12.077Z,0.20
2023-04-16T17:26:01.821Z,0.15
2023-04-16T17:28:44.929Z,0.20
2023-04-16T17:31:37.735Z,0.09
2023-04-16T17:34:24.554Z,0.20
2023-04-16T17:37:15.489Z,0.10
2023-04-16T17:40:07.546Z,0.20
2023-04-16T17:42:56.851Z,0.10
2023-04-16T17:45:42.524Z,0.14
2023-04-16T17:48:37.873Z,0.10
2023-04-16T17:51:21.347Z,0.20
2023-04-16T17:54:17.201Z,0.15
2023-04-16T17:57:11.776Z,0.20
2023-04-16T18:00:11.090Z,0.20
2023-04-16T18:03:11.606Z,0.20
2023-04-16T18:05:59.641Z,0.20
2023-04-16T18:08:48.921Z,0.20
2023-04-16T18:11:51.531Z,0.20
2023-04-16T18:15:14.945Z,0.18
2023-04-16T18:18:14.748Z,0.13
2023-04-16T18:22:15.902Z,0.20
2023-04-16T18:25:32.199Z,0.20
2023-04-16T18:28:37.781Z,0.15
2023-04-16T18:31:52.819Z,0.20
2023-04-16T18:34:47.794Z,0.20
2023-04-16T18:37:47.070Z,0.20
2023-04-16T18:40:42.721Z,0.17
2023-04-16T18:43:37.261Z,0.10
2023-04-16T18:46:30.297Z,0.13
2023-04-16T18:49:24.882Z,0.15
2023-04-16T18:52:19.914Z,0.20
2023-04-16T18:55:24.120Z,0.20
2023-04-16T18:58:19.313Z,0.20
2023-04-16T19:01:02.198Z,0.20
2023-04-16T19:03:59.329Z,0.20
2023-04-16T19:06:54.279Z,0.17
2023-04-16T19:09:45.089Z,0.20
2023-04-16T19:12:47.700Z,0.17
2023-04-16T19:15:53.662Z,0.13
2023-04-16T19:18:50.867Z,0.20
2023-04-16T19:21:43.910Z,0.15
2023-04-16T19:24:51.541Z,0.20
2023-04-16T19:28:00.988Z,0.20
2023-04-16T19:31:09.956Z,0.18
2023-04-16T19:34:21.114Z,0.20
2023-04-16T19:37:34.730Z,0.20
2023-04-16T19:43:52.524Z,0.17
2023-04-16T19:50:06.622Z,0.20
2023-04-16T19:56:28.669Z,0.12
2023-04-16T20:12:05.669Z,0.10
2023-04-16T20:21:38.180Z,0.20
2023-04-16T20:24:58.016Z,0.18
2023-04-16T20:32:27.786Z,0.18
2023-04-16T20:36:03.029Z,0.20
2023-04-16T20:39:40.098Z,0.17
2023-04-16T20:43:22.142Z,0.20
2023-04-16T20:46:50.973Z,0.20
2023-04-16T20:50:24.718Z,0.20
2023-04-16T20:54:10.385Z,0.20
2023-04-16T20:57:48.777Z,0.20
2023-04-16T21:04:29.303Z,0.24
2023-04-16T21:10:49.924Z,0.20
2023-04-16T21:20:13.507Z,0.20
2023-04-16T21:26:39.180Z,0.20
2023-04-16T21:30:06.596Z,0.20
2023-04-16T21:33:27.443Z,0.20
2023-04-16T21:36:51.012Z,0.20
2023-04-16T21:40:13.654Z,0.20
2023-04-16T21:43:42.089Z,0.20
2023-04-16T21:49:49.989Z,0.20
2023-04-16T21:53:08.529Z,0.20
2023-04-16T21:56:27.164Z,0.20
2023-04-16T22:02:34.100Z,0.20
2023-04-16T22:05:40.789Z,0.17
2023-04-16T22:09:02.668Z,0.20
2023-04-16T22:11:57.710Z,0.10
2023-04-16T22:15:18.747Z,0.17
2023-04-16T22:18:28.933Z,0.20
2023-04-16T22:24:46.602Z,0.18
2023-04-16T22:28:09.726Z,0.22
2023-04-16T22:31:32.813Z,0.20
2023-04-16T22:34:58.888Z,0.20
2023-04-16T22:41:18.183Z,0.20
2023-04-16T22:44:32.984Z,0.22
2023-04-16T22:47:55.280Z,0.20
2023-04-16T22:57:24.874Z,0.18
2023-04-16T23:00:43.432Z,0.20
2023-04-16T23:04:05.451Z,0.20
2023-04-16T23:13:37.514Z,0.20
2023-04-16T23:17:06.667Z,0.20
2023-04-16T23:26:52.480Z,0.20
2023-04-16T23:30:29.656Z,0.20
2023-04-16T23:34:15.443Z,0.25
2023-04-16T23:37:50.454Z,0.25
2023-04-16T23:41:24.164Z,0.22
2023-04-16T23:45:11.772Z,0.20
2023-04-16T23:49:04.784Z,0.15
2023-04-16T23:52:42.404Z,0.20
2023-04-16T23:56:16.890Z,0.20
